sensor_id;sensor_type;location;lat;lon;timestamp;temperature;humidity
27200;DHT22;14714;48.106;11.546;2023-04-03T00:00:38;2.80;99.90
27200;DHT22;14714;48.106;11.546;2023-04-03T00:03:05;2.80;99.90
27200;DHT22;14714;48.106;11.546;2023-04-03T00:05:32;2.80;99.90
27200;DHT22;14714;48.106;11.546;2023-04-03T00:07:59;2.80;99.90
27200;DHT22;14714;48.106;11.546;2023-04-03T00:10:28;2.70;99.90
27200;DHT22;14714;48.106;11.546;2023-04-03T00:12:55;2.70;99.90
27200;DHT22;14714;48.106;11.546;2023-04-03T00:15:22;2.70;99.90
27200;DHT22;14714;48.106;11.546;2023-04-03T00:17:49;2.70;99.90
27200;DHT22;14714;48.106;11.546;2023-04-03T00:20:16;2.70;99.90
27200;DHT22;14714;48.106;11.546;2023-04-03T00:22:42;2.60;99.90
27200;DHT22;14714;48.106;11.546;2023-04-03T00:25:09;2.60;99.90
27200;DHT22;14714;48.106;11.546;2023-04-03T00:27:38;2.70;99.90
27200;DHT22;14714;48.106;11.546;2023-04-03T00:30:07;2.70;99.90
27200;DHT22;14714;48.106;11.546;2023-04-03T00:32:34;2.70;99.90
27200;DHT22;14714;48.106;11.546;2023-04-03T00:35:01;2.70;99.90
27200;DHT22;14714;48.106;11.546;2023-04-03T00:37:28;2.80;99.90
27200;DHT22;14714;48.106;11.546;2023-04-03T00:39:55;2.80;99.90
27200;DHT22;14714;48.106;11.546;2023-04-03T00:42:22;2.70;99.90
27200;DHT22;14714;48.106;11.546;2023-04-03T00:47:17;2.70;99.90
27200;DHT22;14714;48.106;11.546;2023-04-03T00:49:44;2.70;99.90
27200;DHT22;14714;48.106;11.546;2023-04-03T00:52:16;2.70;99.90
27200;DHT22;14714;48.106;11.546;2023-04-03T00:54:46;2.70;99.90
27200;DHT22;14714;48.106;11.546;2023-04-03T00:57:15;2.70;99.90
27200;DHT22;14714;48.106;11.546;2023-04-03T00:59:46;2.70;99.90
27200;DHT22;14714;48.106;11.546;2023-04-03T01:02:15;2.70;99.90
27200;DHT22;14714;48.106;11.546;2023-04-03T01:04:43;2.70;99.90
27200;DHT22;14714;48.106;11.546;2023-04-03T01:07:16;2.70;99.90
27200;DHT22;14714;48.106;11.546;2023-04-03T01:09:45;2.70;99.90
27200;DHT22;14714;48.106;11.546;2023-04-03T01:12:18;2.70;99.90
27200;DHT22;14714;48.106;11.546;2023-04-03T01:14:46;2.80;99.90
27200;DHT22;14714;48.106;11.546;2023-04-03T01:25:42;2.90;99.90
27200;DHT22;14714;48.106;11.546;2023-04-03T01:28:14;2.90;99.90
27200;DHT22;14714;48.106;11.546;2023-04-03T01:33:33;3.00;99.90
27200;DHT22;14714;48.106;11.546;2023-04-03T01:35:59;3.00;99.90
27200;DHT22;14714;48.106;11.546;2023-04-03T01:38:26;3.00;99.90
27200;DHT22;14714;48.106;11.546;2023-04-03T01:40:53;3.00;99.90
27200;DHT22;14714;48.106;11.546;2023-04-03T01:43:20;3.10;99.90
27200;DHT22;14714;48.106;11.546;2023-04-03T01:45:47;3.10;99.90
27200;DHT22;14714;48.106;11.546;2023-04-03T01:48:16;3.20;99.90
27200;DHT22;14714;48.106;11.546;2023-04-03T01:50:43;3.20;99.90
27200;DHT22;14714;48.106;11.546;2023-04-03T01:53:09;3.20;99.90
27200;DHT22;14714;48.106;11.546;2023-04-03T01:55:36;3.20;99.90
27200;DHT22;14714;48.106;11.546;2023-04-03T01:58:03;3.20;99.90
27200;DHT22;14714;48.106;11.546;2023-04-03T02:00:30;3.10;99.90
27200;DHT22;14714;48.106;11.546;2023-04-03T02:02:57;3.10;99.90
27200;DHT22;14714;48.106;11.546;2023-04-03T02:05:24;3.00;99.90
27200;DHT22;14714;48.106;11.546;2023-04-03T02:07:51;3.00;99.90
27200;DHT22;14714;48.106;11.546;2023-04-03T02:10:17;2.90;99.90
27200;DHT22;14714;48.106;11.546;2023-04-03T02:12:44;2.90;99.90
27200;DHT22;14714;48.106;11.546;2023-04-03T02:15:11;2.90;99.90
27200;DHT22;14714;48.106;11.546;2023-04-03T02:17:38;2.80;99.90
27200;DHT22;14714;48.106;11.546;2023-04-03T02:20:05;2.80;99.90
27200;DHT22;14714;48.106;11.546;2023-04-03T02:22:32;2.80;99.90
27200;DHT22;14714;48.106;11.546;2023-04-03T02:24:59;2.80;99.90
27200;DHT22;14714;48.106;11.546;2023-04-03T02:27:26;2.80;99.90
27200;DHT22;14714;48.106;11.546;2023-04-03T02:29:53;2.80;99.90
27200;DHT22;14714;48.106;11.546;2023-04-03T02:32:20;2.80;99.90
27200;DHT22;14714;48.106;11.546;2023-04-03T02:34:47;2.80;99.90
27200;DHT22;14714;48.106;11.546;2023-04-03T02:37:13;2.80;99.90
27200;DHT22;14714;48.106;11.546;2023-04-03T02:39:40;2.80;99.90
27200;DHT22;14714;48.106;11.546;2023-04-03T02:42:07;2.80;99.90
27200;DHT22;14714;48.106;11.546;2023-04-03T02:44:34;2.80;99.90
27200;DHT22;14714;48.106;11.546;2023-04-03T02:47:02;2.80;99.90
27200;DHT22;14714;48.106;11.546;2023-04-03T02:49:29;2.70;99.90
27200;DHT22;14714;48.106;11.546;2023-04-03T02:51:56;2.80;99.90
27200;DHT22;14714;48.106;11.546;2023-04-03T02:54:23;2.70;99.90
27200;DHT22;14714;48.106;11.546;2023-04-03T02:56:54;2.80;99.90
27200;DHT22;14714;48.106;11.546;2023-04-03T02:59:21;2.70;99.90
27200;DHT22;14714;48.106;11.546;2023-04-03T03:01:48;2.80;99.90
27200;DHT22;14714;48.106;11.546;2023-04-03T03:04:15;2.70;99.90
27200;DHT22;14714;48.106;11.546;2023-04-03T03:06:41;2.70;99.90
27200;DHT22;14714;48.106;11.546;2023-04-03T03:09:10;2.70;99.90
27200;DHT22;14714;48.106;11.546;2023-04-03T03:11:37;2.80;99.90
27200;DHT22;14714;48.106;11.546;2023-04-03T03:14:04;2.70;99.90
27200;DHT22;14714;48.106;11.546;2023-04-03T03:16:30;2.70;99.90
27200;DHT22;14714;48.106;11.546;2023-04-03T03:18:57;2.70;99.90
27200;DHT22;14714;48.106;11.546;2023-04-03T03:21:24;2.70;99.90
27200;DHT22;14714;48.106;11.546;2023-04-03T03:23:51;2.70;99.90
27200;DHT22;14714;48.106;11.546;2023-04-03T03:26:18;2.70;99.90
27200;DHT22;14714;48.106;11.546;2023-04-03T03:28:44;2.70;99.90
27200;DHT22;14714;48.106;11.546;2023-04-03T03:31:12;2.70;99.90
27200;DHT22;14714;48.106;11.546;2023-04-03T03:33:39;2.70;99.90
27200;DHT22;14714;48.106;11.546;2023-04-03T03:36:06;2.70;99.90
27200;DHT22;14714;48.106;11.546;2023-04-03T03:38:32;2.70;99.90
27200;DHT22;14714;48.106;11.546;2023-04-03T03:40:59;2.70;99.90
27200;DHT22;14714;48.106;11.546;2023-04-03T03:43:26;2.70;99.90
27200;DHT22;14714;48.106;11.546;2023-04-03T03:45:54;2.80;99.90
27200;DHT22;14714;48.106;11.546;2023-04-03T03:48:21;2.80;99.90
27200;DHT22;14714;48.106;11.546;2023-04-03T03:50:49;2.80;99.90
27200;DHT22;14714;48.106;11.546;2023-04-03T03:53:15;2.80;99.90
27200;DHT22;14714;48.106;11.546;2023-04-03T03:55:42;2.90;99.90
27200;DHT22;14714;48.106;11.546;2023-04-03T03:58:09;2.90;99.90
27200;DHT22;14714;48.106;11.546;2023-04-03T04:00:36;2.90;99.90
27200;DHT22;14714;48.106;11.546;2023-04-03T04:03:03;2.90;99.90
27200;DHT22;14714;48.106;11.546;2023-04-03T04:05:31;2.90;99.90
27200;DHT22;14714;48.106;11.546;2023-04-03T04:07:58;2.90;99.90
27200;DHT22;14714;48.106;11.546;2023-04-03T04:10:24;2.90;99.90
27200;DHT22;14714;48.106;11.546;2023-04-03T04:12:51;2.90;99.90
27200;DHT22;14714;48.106;11.546;2023-04-03T04:15:18;2.80;99.90
27200;DHT22;14714;48.106;11.546;2023-04-03T04:17:45;2.80;99.90
27200;DHT22;14714;48.106;11.546;2023-04-03T04:20:12;2.80;99.90
27200;DHT22;14714;48.106;11.546;2023-04-03T04:22:38;2.90;99.90
27200;DHT22;14714;48.106;11.546;2023-04-03T04:25:06;2.90;99.90
27200;DHT22;14714;48.106;11.546;2023-04-03T04:27:33;2.90;99.90
27200;DHT22;14714;48.106;11.546;2023-04-03T04:29:59;2.90;99.90
27200;DHT22;14714;48.106;11.546;2023-04-03T04:32:27;2.90;99.90
27200;DHT22;14714;48.106;11.546;2023-04-03T04:34:54;2.90;99.90
27200;DHT22;14714;48.106;11.546;2023-04-03T04:37:21;2.90;99.90
27200;DHT22;14714;48.106;11.546;2023-04-03T04:39:48;2.90;99.90
27200;DHT22;14714;48.106;11.546;2023-04-03T04:42:14;2.90;99.90
27200;DHT22;14714;48.106;11.546;2023-04-03T04:44:43;2.80;99.90
27200;DHT22;14714;48.106;11.546;2023-04-03T04:47:10;2.80;99.90
27200;DHT22;14714;48.106;11.546;2023-04-03T04:49:37;2.80;99.90
27200;DHT22;14714;48.106;11.546;2023-04-03T04:52:04;2.80;99.90
27200;DHT22;14714;48.106;11.546;2023-04-03T04:54:31;2.80;99.90
27200;DHT22;14714;48.106;11.546;2023-04-03T04:56:58;2.80;99.90
27200;DHT22;14714;48.106;11.546;2023-04-03T04:59:25;2.80;99.90
27200;DHT22;14714;48.106;11.546;2023-04-03T05:01:52;2.80;99.90
27200;DHT22;14714;48.106;11.546;2023-04-03T05:04:18;2.80;99.90
27200;DHT22;14714;48.106;11.546;2023-04-03T05:06:45;2.80;99.90
27200;DHT22;14714;48.106;11.546;2023-04-03T05:09:12;2.80;99.90
27200;DHT22;14714;48.106;11.546;2023-04-03T05:11:39;2.80;99.90
27200;DHT22;14714;48.106;11.546;2023-04-03T05:14:06;2.80;99.90
27200;DHT22;14714;48.106;11.546;2023-04-03T05:16:33;2.80;99.90
27200;DHT22;14714;48.106;11.546;2023-04-03T05:19:00;2.80;99.90
27200;DHT22;14714;48.106;11.546;2023-04-03T05:21:27;2.80;99.90
27200;DHT22;14714;48.106;11.546;2023-04-03T05:23:59;2.80;99.90
27200;DHT22;14714;48.106;11.546;2023-04-03T05:26:32;2.90;99.90
27200;DHT22;14714;48.106;11.546;2023-04-03T05:28:58;2.90;99.90
27200;DHT22;14714;48.106;11.546;2023-04-03T05:31:25;2.90;99.90
27200;DHT22;14714;48.106;11.546;2023-04-03T05:33:52;2.90;99.90
27200;DHT22;14714;48.106;11.546;2023-04-03T05:36:19;2.90;99.90
27200;DHT22;14714;48.106;11.546;2023-04-03T05:38:46;2.90;99.90
27200;DHT22;14714;48.106;11.546;2023-04-03T05:41:14;2.90;99.90
27200;DHT22;14714;48.106;11.546;2023-04-03T05:43:41;2.90;99.90
27200;DHT22;14714;48.106;11.546;2023-04-03T05:46:13;3.00;99.90
27200;DHT22;14714;48.106;11.546;2023-04-03T05:48:40;3.00;99.90
27200;DHT22;14714;48.106;11.546;2023-04-03T05:51:07;3.10;99.90
27200;DHT22;14714;48.106;11.546;2023-04-03T05:53:38;3.20;99.90
27200;DHT22;14714;48.106;11.546;2023-04-03T05:56:05;3.20;99.90
27200;DHT22;14714;48.106;11.546;2023-04-03T05:58:32;3.20;99.90
27200;DHT22;14714;48.106;11.546;2023-04-03T06:00:59;3.20;99.90
27200;DHT22;14714;48.106;11.546;2023-04-03T06:03:26;3.20;99.90
27200;DHT22;14714;48.106;11.546;2023-04-03T06:05:53;3.20;99.90
27200;DHT22;14714;48.106;11.546;2023-04-03T06:08:20;3.20;99.90
27200;DHT22;14714;48.106;11.546;2023-04-03T06:10:46;3.20;99.90
27200;DHT22;14714;48.106;11.546;2023-04-03T06:13:14;3.30;99.90
27200;DHT22;14714;48.106;11.546;2023-04-03T06:15:41;3.30;99.90
27200;DHT22;14714;48.106;11.546;2023-04-03T06:18:08;3.30;99.90
27200;DHT22;14714;48.106;11.546;2023-04-03T06:20:35;3.30;99.90
27200;DHT22;14714;48.106;11.546;2023-04-03T06:23:02;3.30;99.90
27200;DHT22;14714;48.106;11.546;2023-04-03T06:25:29;3.30;99.90
27200;DHT22;14714;48.106;11.546;2023-04-03T06:27:56;3.30;99.90
27200;DHT22;14714;48.106;11.546;2023-04-03T06:30:23;3.30;99.90
27200;DHT22;14714;48.106;11.546;2023-04-03T06:32:49;3.30;99.90
27200;DHT22;14714;48.106;11.546;2023-04-03T06:35:16;3.40;99.90
27200;DHT22;14714;48.106;11.546;2023-04-03T06:37:43;3.40;99.90
27200;DHT22;14714;48.106;11.546;2023-04-03T06:40:19;3.40;99.90
27200;DHT22;14714;48.106;11.546;2023-04-03T06:42:47;3.50;99.90
27200;DHT22;14714;48.106;11.546;2023-04-03T06:45:14;3.50;99.90
27200;DHT22;14714;48.106;11.546;2023-04-03T06:47:41;3.50;99.90
27200;DHT22;14714;48.106;11.546;2023-04-03T06:50:10;3.60;99.90
27200;DHT22;14714;48.106;11.546;2023-04-03T06:52:38;3.60;99.90
27200;DHT22;14714;48.106;11.546;2023-04-03T06:55:07;3.70;99.90
27200;DHT22;14714;48.106;11.546;2023-04-03T06:57:33;3.70;99.90
27200;DHT22;14714;48.106;11.546;2023-04-03T07:00:01;3.70;99.90
27200;DHT22;14714;48.106;11.546;2023-04-03T07:02:28;3.70;99.90
27200;DHT22;14714;48.106;11.546;2023-04-03T07:04:54;3.80;99.90
27200;DHT22;14714;48.106;11.546;2023-04-03T07:07:21;3.80;99.90
27200;DHT22;14714;48.106;11.546;2023-04-03T07:09:48;3.90;99.90
27200;DHT22;14714;48.106;11.546;2023-04-03T07:12:15;3.90;99.90
27200;DHT22;14714;48.106;11.546;2023-04-03T07:14:43;4.00;99.90
27200;DHT22;14714;48.106;11.546;2023-04-03T07:17:10;4.00;99.90
27200;DHT22;14714;48.106;11.546;2023-04-03T07:19:37;4.00;99.90
27200;DHT22;14714;48.106;11.546;2023-04-03T07:22:03;4.00;99.90
27200;DHT22;14714;48.106;11.546;2023-04-03T07:24:30;4.00;99.90
27200;DHT22;14714;48.106;11.546;2023-04-03T07:26:57;4.00;99.90
27200;DHT22;14714;48.106;11.546;2023-04-03T07:29:24;4.00;99.90
27200;DHT22;14714;48.106;11.546;2023-04-03T07:31:50;4.10;99.90
27200;DHT22;14714;48.106;11.546;2023-04-03T07:34:18;4.10;99.90
27200;DHT22;14714;48.106;11.546;2023-04-03T07:36:44;4.10;99.90
27200;DHT22;14714;48.106;11.546;2023-04-03T07:39:11;4.10;99.90
27200;DHT22;14714;48.106;11.546;2023-04-03T07:41:38;4.20;99.90
27200;DHT22;14714;48.106;11.546;2023-04-03T07:44:05;4.30;99.90
27200;DHT22;14714;48.106;11.546;2023-04-03T07:46:32;4.40;99.90
27200;DHT22;14714;48.106;11.546;2023-04-03T07:48:59;4.50;99.90
27200;DHT22;14714;48.106;11.546;2023-04-03T07:51:26;4.50;99.90
27200;DHT22;14714;48.106;11.546;2023-04-03T07:53:53;4.60;99.90
27200;DHT22;14714;48.106;11.546;2023-04-03T07:56:20;4.60;99.90
27200;DHT22;14714;48.106;11.546;2023-04-03T07:58:47;4.70;99.90
27200;DHT22;14714;48.106;11.546;2023-04-03T08:01:14;4.70;99.90
27200;DHT22;14714;48.106;11.546;2023-04-03T08:03:41;4.90;99.90
27200;DHT22;14714;48.106;11.546;2023-04-03T08:06:08;4.80;99.90
27200;DHT22;14714;48.106;11.546;2023-04-03T08:08:41;4.70;99.90
27200;DHT22;14714;48.106;11.546;2023-04-03T08:11:09;4.60;99.90
27200;DHT22;14714;48.106;11.546;2023-04-03T08:13:37;4.60;99.90
27200;DHT22;14714;48.106;11.546;2023-04-03T08:16:12;4.50;99.90
27200;DHT22;14714;48.106;11.546;2023-04-03T08:18:39;4.40;99.90
27200;DHT22;14714;48.106;11.546;2023-04-03T08:21:08;4.40;99.90
27200;DHT22;14714;48.106;11.546;2023-04-03T08:23:36;4.50;99.90
27200;DHT22;14714;48.106;11.546;2023-04-03T08:26:21;4.60;99.90
27200;DHT22;14714;48.106;11.546;2023-04-03T08:28:48;4.70;99.90
27200;DHT22;14714;48.106;11.546;2023-04-03T08:31:17;4.70;99.90
27200;DHT22;14714;48.106;11.546;2023-04-03T08:33:45;4.80;99.90
27200;DHT22;14714;48.106;11.546;2023-04-03T08:36:23;4.80;99.90
27200;DHT22;14714;48.106;11.546;2023-04-03T08:38:52;4.90;99.90
27200;DHT22;14714;48.106;11.546;2023-04-03T08:49:42;4.90;99.90
27200;DHT22;14714;48.106;11.546;2023-04-03T08:52:18;4.90;99.90
27200;DHT22;14714;48.106;11.546;2023-04-03T08:54:57;4.80;99.90
27200;DHT22;14714;48.106;11.546;2023-04-03T08:57:35;4.80;99.90
27200;DHT22;14714;48.106;11.546;2023-04-03T09:00:21;4.80;99.90
27200;DHT22;14714;48.106;11.546;2023-04-03T09:02:54;4.70;99.90
27200;DHT22;14714;48.106;11.546;2023-04-03T09:08:47;4.90;99.90
27200;DHT22;14714;48.106;11.546;2023-04-03T09:11:23;5.00;99.90
27200;DHT22;14714;48.106;11.546;2023-04-03T09:16:58;5.20;99.90
27200;DHT22;14714;48.106;11.546;2023-04-03T09:22:24;5.70;99.90
27200;DHT22;14714;48.106;11.546;2023-04-03T09:25:13;5.90;99.90
27200;DHT22;14714;48.106;11.546;2023-04-03T09:27:40;6.00;99.90
27200;DHT22;14714;48.106;11.546;2023-04-03T09:30:24;6.00;99.90
27200;DHT22;14714;48.106;11.546;2023-04-03T09:32:54;6.00;99.90
27200;DHT22;14714;48.106;11.546;2023-04-03T09:40:42;6.10;99.90
27200;DHT22;14714;48.106;11.546;2023-04-03T09:43:21;6.20;99.90
27200;DHT22;14714;48.106;11.546;2023-04-03T09:45:50;6.30;99.90
27200;DHT22;14714;48.106;11.546;2023-04-03T09:48:21;6.40;99.90
27200;DHT22;14714;48.106;11.546;2023-04-03T09:55:54;6.30;99.90
27200;DHT22;14714;48.106;11.546;2023-04-03T09:58:27;6.30;99.90
27200;DHT22;14714;48.106;11.546;2023-04-03T10:01:29;6.20;99.90
27200;DHT22;14714;48.106;11.546;2023-04-03T10:04:15;6.10;99.90
27200;DHT22;14714;48.106;11.546;2023-04-03T10:06:50;6.00;99.90
27200;DHT22;14714;48.106;11.546;2023-04-03T10:09:24;6.10;99.90
27200;DHT22;14714;48.106;11.546;2023-04-03T10:14:33;6.20;99.90
27200;DHT22;14714;48.106;11.546;2023-04-03T10:25:20;6.00;99.90
27200;DHT22;14714;48.106;11.546;2023-04-03T10:28:21;5.90;99.90
27200;DHT22;14714;48.106;11.546;2023-04-03T10:31:03;5.70;99.90
27200;DHT22;14714;48.106;11.546;2023-04-03T10:33:48;5.60;99.90
27200;DHT22;14714;48.106;11.546;2023-04-03T10:36:29;5.30;99.90
27200;DHT22;14714;48.106;11.546;2023-04-03T10:41:51;5.10;99.90
27200;DHT22;14714;48.106;11.546;2023-04-03T10:47:27;4.90;99.90
27200;DHT22;14714;48.106;11.546;2023-04-03T10:58:05;4.50;99.90
27200;DHT22;14714;48.106;11.546;2023-04-03T11:00:45;4.40;99.90
27200;DHT22;14714;48.106;11.546;2023-04-03T11:03:36;4.40;99.90
27200;DHT22;14714;48.106;11.546;2023-04-03T11:06:10;4.40;99.90
27200;DHT22;14714;48.106;11.546;2023-04-03T11:09:03;4.40;99.90
27200;DHT22;14714;48.106;11.546;2023-04-03T11:11:34;4.30;99.90
27200;DHT22;14714;48.106;11.546;2023-04-03T11:14:11;4.30;99.90
27200;DHT22;14714;48.106;11.546;2023-04-03T11:16:46;4.10;99.90
27200;DHT22;14714;48.106;11.546;2023-04-03T11:19:22;4.00;99.90
27200;DHT22;14714;48.106;11.546;2023-04-03T11:22:03;4.00;99.90
27200;DHT22;14714;48.106;11.546;2023-04-03T11:24:33;4.00;99.90
27200;DHT22;14714;48.106;11.546;2023-04-03T11:27:02;4.00;99.90
27200;DHT22;14714;48.106;11.546;2023-04-03T11:29:35;4.10;99.90
27200;DHT22;14714;48.106;11.546;2023-04-03T11:35:05;4.40;99.90
27200;DHT22;14714;48.106;11.546;2023-04-03T11:37:39;4.70;99.90
27200;DHT22;14714;48.106;11.546;2023-04-03T11:40:28;4.80;99.90
27200;DHT22;14714;48.106;11.546;2023-04-03T11:45:49;5.10;99.90
27200;DHT22;14714;48.106;11.546;2023-04-03T11:53:47;5.50;99.90
27200;DHT22;14714;48.106;11.546;2023-04-03T12:01:54;5.70;99.90
27200;DHT22;14714;48.106;11.546;2023-04-03T12:04:23;5.80;99.90
27200;DHT22;14714;48.106;11.546;2023-04-03T12:07:23;5.70;99.90
27200;DHT22;14714;48.106;11.546;2023-04-03T12:12:28;5.70;99.90
27200;DHT22;14714;48.106;11.546;2023-04-03T12:14:55;5.70;99.90
27200;DHT22;14714;48.106;11.546;2023-04-03T12:17:26;5.50;99.90
27200;DHT22;14714;48.106;11.546;2023-04-03T12:19:53;5.40;99.90
27200;DHT22;14714;48.106;11.546;2023-04-03T12:22:21;5.30;99.90
27200;DHT22;14714;48.106;11.546;2023-04-03T12:24:52;5.30;99.90
27200;DHT22;14714;48.106;11.546;2023-04-03T12:27:33;5.40;99.90
27200;DHT22;14714;48.106;11.546;2023-04-03T12:44:00;6.00;99.90
27200;DHT22;14714;48.106;11.546;2023-04-03T12:46:48;6.00;99.90
27200;DHT22;14714;48.106;11.546;2023-04-03T12:49:36;6.10;99.90
27200;DHT22;14714;48.106;11.546;2023-04-03T12:52:16;6.20;99.90
27200;DHT22;14714;48.106;11.546;2023-04-03T12:54:46;6.50;99.90
27200;DHT22;14714;48.106;11.546;2023-04-03T12:57:22;6.80;99.90
27200;DHT22;14714;48.106;11.546;2023-04-03T12:59:50;7.00;99.90
27200;DHT22;14714;48.106;11.546;2023-04-03T13:02:21;7.20;97.90
27200;DHT22;14714;48.106;11.546;2023-04-03T13:04:52;7.30;96.10
27200;DHT22;14714;48.106;11.546;2023-04-03T13:07:31;7.40;96.20
27200;DHT22;14714;48.106;11.546;2023-04-03T13:10:19;7.60;96.80
27200;DHT22;14714;48.106;11.546;2023-04-03T13:12:50;7.80;94.60
27200;DHT22;14714;48.106;11.546;2023-04-03T13:17:52;7.80;93.30
27200;DHT22;14714;48.106;11.546;2023-04-03T13:20:27;7.80;92.40
27200;DHT22;14714;48.106;11.546;2023-04-03T13:22:59;7.70;92.20
27200;DHT22;14714;48.106;11.546;2023-04-03T13:25:29;7.80;91.50
27200;DHT22;14714;48.106;11.546;2023-04-03T13:27:57;7.80;91.80
27200;DHT22;14714;48.106;11.546;2023-04-03T13:30:32;7.80;91.60
27200;DHT22;14714;48.106;11.546;2023-04-03T13:33:02;7.90;91.50
27200;DHT22;14714;48.106;11.546;2023-04-03T13:37:59;7.80;88.90
27200;DHT22;14714;48.106;11.546;2023-04-03T13:40:26;7.70;88.20
27200;DHT22;14714;48.106;11.546;2023-04-03T13:43:14;7.60;90.90
27200;DHT22;14714;48.106;11.546;2023-04-03T13:48:46;7.80;87.10
27200;DHT22;14714;48.106;11.546;2023-04-03T13:53:56;7.60;89.80
27200;DHT22;14714;48.106;11.546;2023-04-03T13:58:58;7.20;87.60
27200;DHT22;14714;48.106;11.546;2023-04-03T14:01:43;7.00;88.90
27200;DHT22;14714;48.106;11.546;2023-04-03T14:04:32;6.80;89.00
27200;DHT22;14714;48.106;11.546;2023-04-03T14:06:59;6.60;90.00
27200;DHT22;14714;48.106;11.546;2023-04-03T14:09:27;6.60;90.40
27200;DHT22;14714;48.106;11.546;2023-04-03T14:11:58;6.50;90.50
27200;DHT22;14714;48.106;11.546;2023-04-03T14:14:29;6.50;90.00
27200;DHT22;14714;48.106;11.546;2023-04-03T14:16:59;6.40;89.10
27200;DHT22;14714;48.106;11.546;2023-04-03T14:19:29;6.50;90.90
27200;DHT22;14714;48.106;11.546;2023-04-03T14:21:56;6.50;89.60
27200;DHT22;14714;48.106;11.546;2023-04-03T14:24:23;6.50;90.10
27200;DHT22;14714;48.106;11.546;2023-04-03T14:26:52;6.60;88.60
27200;DHT22;14714;48.106;11.546;2023-04-03T14:29:20;6.60;89.90
27200;DHT22;14714;48.106;11.546;2023-04-03T14:31:48;6.70;89.40
27200;DHT22;14714;48.106;11.546;2023-04-03T14:34:26;6.70;86.90
27200;DHT22;14714;48.106;11.546;2023-04-03T14:36:52;6.70;86.10
27200;DHT22;14714;48.106;11.546;2023-04-03T14:39:19;6.70;87.60
27200;DHT22;14714;48.106;11.546;2023-04-03T14:41:46;6.80;84.50
27200;DHT22;14714;48.106;11.546;2023-04-03T14:44:13;6.80;86.40
27200;DHT22;14714;48.106;11.546;2023-04-03T14:46:44;6.80;83.80
27200;DHT22;14714;48.106;11.546;2023-04-03T14:49:26;6.90;84.40
27200;DHT22;14714;48.106;11.546;2023-04-03T14:51:55;7.00;82.10
27200;DHT22;14714;48.106;11.546;2023-04-03T14:54:23;7.00;83.50
27200;DHT22;14714;48.106;11.546;2023-04-03T14:56:55;7.00;80.00
27200;DHT22;14714;48.106;11.546;2023-04-03T14:59:22;7.00;81.80
27200;DHT22;14714;48.106;11.546;2023-04-03T15:01:49;7.00;80.00
27200;DHT22;14714;48.106;11.546;2023-04-03T15:04:19;6.90;79.20
27200;DHT22;14714;48.106;11.546;2023-04-03T15:06:48;6.80;80.70
27200;DHT22;14714;48.106;11.546;2023-04-03T15:09:23;6.60;81.00
27200;DHT22;14714;48.106;11.546;2023-04-03T15:11:52;6.50;81.10
27200;DHT22;14714;48.106;11.546;2023-04-03T15:14:19;6.40;81.90
27200;DHT22;14714;48.106;11.546;2023-04-03T15:17:04;6.40;82.20
27200;DHT22;14714;48.106;11.546;2023-04-03T15:19:37;6.30;82.10
27200;DHT22;14714;48.106;11.546;2023-04-03T15:22:04;6.20;80.70
27200;DHT22;14714;48.106;11.546;2023-04-03T15:24:31;6.20;80.10
27200;DHT22;14714;48.106;11.546;2023-04-03T15:26:59;6.10;80.10
27200;DHT22;14714;48.106;11.546;2023-04-03T15:29:27;6.10;78.90
27200;DHT22;14714;48.106;11.546;2023-04-03T15:31:54;6.00;79.00
27200;DHT22;14714;48.106;11.546;2023-04-03T15:34:21;5.90;77.40
27200;DHT22;14714;48.106;11.546;2023-04-03T15:36:49;5.90;79.50
27200;DHT22;14714;48.106;11.546;2023-04-03T15:39:16;6.00;79.10
27200;DHT22;14714;48.106;11.546;2023-04-03T15:41:44;5.90;79.10
27200;DHT22;14714;48.106;11.546;2023-04-03T15:44:11;6.00;77.50
27200;DHT22;14714;48.106;11.546;2023-04-03T15:46:39;5.90;77.60
27200;DHT22;14714;48.106;11.546;2023-04-03T15:49:06;5.90;76.80
27200;DHT22;14714;48.106;11.546;2023-04-03T15:51:33;5.90;77.00
27200;DHT22;14714;48.106;11.546;2023-04-03T15:54:00;5.80;76.10
27200;DHT22;14714;48.106;11.546;2023-04-03T15:56:26;5.70;76.60
27200;DHT22;14714;48.106;11.546;2023-04-03T15:58:53;5.70;76.50
27200;DHT22;14714;48.106;11.546;2023-04-03T16:01:20;5.60;75.10
27200;DHT22;14714;48.106;11.546;2023-04-03T16:03:47;5.50;74.90
27200;DHT22;14714;48.106;11.546;2023-04-03T16:06:15;5.50;74.70
27200;DHT22;14714;48.106;11.546;2023-04-03T16:08:42;5.40;74.20
27200;DHT22;14714;48.106;11.546;2023-04-03T16:11:09;5.40;74.90
27200;DHT22;14714;48.106;11.546;2023-04-03T16:13:36;5.30;73.20
27200;DHT22;14714;48.106;11.546;2023-04-03T16:16:04;5.20;72.60
27200;DHT22;14714;48.106;11.546;2023-04-03T16:18:32;5.20;72.00
27200;DHT22;14714;48.106;11.546;2023-04-03T16:21:01;5.10;72.60
27200;DHT22;14714;48.106;11.546;2023-04-03T16:23:28;5.00;73.90
27200;DHT22;14714;48.106;11.546;2023-04-03T16:25:54;5.00;74.60
27200;DHT22;14714;48.106;11.546;2023-04-03T16:28:21;4.90;76.60
27200;DHT22;14714;48.106;11.546;2023-04-03T16:30:48;4.90;76.40
27200;DHT22;14714;48.106;11.546;2023-04-03T16:33:15;4.90;76.30
27200;DHT22;14714;48.106;11.546;2023-04-03T16:35:42;4.80;78.50
27200;DHT22;14714;48.106;11.546;2023-04-03T16:38:10;4.80;77.90
27200;DHT22;14714;48.106;11.546;2023-04-03T16:40:37;4.80;78.90
27200;DHT22;14714;48.106;11.546;2023-04-03T16:43:03;4.80;78.40
27200;DHT22;14714;48.106;11.546;2023-04-03T16:45:30;4.80;79.30
27200;DHT22;14714;48.106;11.546;2023-04-03T16:47:57;4.80;79.50
27200;DHT22;14714;48.106;11.546;2023-04-03T16:50:24;4.90;79.20
27200;DHT22;14714;48.106;11.546;2023-04-03T16:52:51;4.90;77.60
27200;DHT22;14714;48.106;11.546;2023-04-03T16:55:18;4.90;78.90
27200;DHT22;14714;48.106;11.546;2023-04-03T16:57:44;4.90;77.70
27200;DHT22;14714;48.106;11.546;2023-04-03T17:00:12;4.90;77.40
27200;DHT22;14714;48.106;11.546;2023-04-03T17:02:39;4.90;77.50
27200;DHT22;14714;48.106;11.546;2023-04-03T17:05:07;4.90;76.60
27200;DHT22;14714;48.106;11.546;2023-04-03T17:07:33;4.90;77.50
27200;DHT22;14714;48.106;11.546;2023-04-03T17:10:00;4.90;77.90
27200;DHT22;14714;48.106;11.546;2023-04-03T17:12:27;4.80;77.30
27200;DHT22;14714;48.106;11.546;2023-04-03T17:14:54;4.80;78.30
27200;DHT22;14714;48.106;11.546;2023-04-03T17:17:23;4.80;80.20
27200;DHT22;14714;48.106;11.546;2023-04-03T17:19:51;4.70;79.90
27200;DHT22;14714;48.106;11.546;2023-04-03T17:22:19;4.70;81.40
27200;DHT22;14714;48.106;11.546;2023-04-03T17:24:46;4.60;82.00
27200;DHT22;14714;48.106;11.546;2023-04-03T17:27:13;4.60;81.30
27200;DHT22;14714;48.106;11.546;2023-04-03T17:29:40;4.60;81.20
27200;DHT22;14714;48.106;11.546;2023-04-03T17:32:07;4.50;81.70
27200;DHT22;14714;48.106;11.546;2023-04-03T17:34:34;4.50;82.10
27200;DHT22;14714;48.106;11.546;2023-04-03T17:37:02;4.40;83.10